Time;durP1;ratioP1;P1;durP2;ratioP2;P2;SDS_P1;SDS_P2;PMS_P1;PMS_P2;Temp;Humidity;BMP_temperature;BMP_pressure;BME280_temperature;BME280_humidity;BME280_pressure;Samples;Min_cycle;Max_cycle;Signal;HPM_P1;HPM_P2
2023/03/13 00:01:31;;;;;;;19.10;3.78;;;10.50;99.90;;;;;;5041006;28;20470;-57
2023/03/13 00:03:57;;;;;;;18.42;3.92;;;10.50;99.90;;;;;;5042276;28;20473;-58
2023/03/13 00:06:25;;;;;;;20.10;4.25;;;10.50;99.90;;;;;;5041899;28;20052;-57
2023/03/13 00:08:50;;;;;;;16.45;4.13;;;10.40;99.90;;;;;;5038241;28;20037;-57
2023/03/13 00:11:16;;;;;;;23.02;3.85;;;10.50;99.90;;;;;;5035380;28;20051;-57
2023/03/13 00:13:42;;;;;;;18.63;3.83;;;10.60;99.90;;;;;;5036907;28;20600;-57
2023/03/13 00:16:11;;;;;;;18.70;3.90;;;10.50;99.90;;;;;;5035530;28;20021;-57
2023/03/13 00:18:36;;;;;;;23.08;4.07;;;10.50;99.90;;;;;;5052498;28;20048;-57
2023/03/13 00:21:11;;;;;;;17.17;3.33;;;10.50;99.90;;;;;;5035947;28;20029;-56
2023/03/13 00:23:37;;;;;;;20.25;4.30;;;10.50;99.90;;;;;;5037097;28;20033;-57
2023/03/13 00:26:05;;;;;;;21.95;3.97;;;10.50;99.90;;;;;;5037718;28;20044;-57
2023/03/13 00:28:32;;;;;;;19.00;3.60;;;10.50;99.90;;;;;;5035006;28;20109;-57
2023/03/13 00:31:10;;;;;;;20.63;3.97;;;10.50;99.90;;;;;;5027410;28;20514;-57
2023/03/13 00:33:37;;;;;;;17.35;3.70;;;10.50;99.90;;;;;;5024770;28;20091;-57
2023/03/13 00:36:09;;;;;;;29.88;4.50;;;10.50;99.90;;;;;;5031017;28;20029;-57
2023/03/13 00:38:35;;;;;;;16.90;3.42;;;10.60;99.90;;;;;;5041325;28;20087;-58
2023/03/13 00:41:05;;;;;;;20.88;4.05;;;10.60;99.90;;;;;;5042698;28;20036;-57
2023/03/13 00:43:31;;;;;;;24.60;3.88;;;10.60;99.90;;;;;;5022033;28;20033;-56
2023/03/13 00:45:57;;;;;;;20.73;4.18;;;10.50;99.90;;;;;;5041007;28;20037;-56
2023/03/13 00:48:24;;;;;;;22.63;3.90;;;10.50;99.90;;;;;;5039924;28;20059;-56
2023/03/13 00:50:49;;;;;;;21.38;4.03;;;10.50;99.90;;;;;;5042773;28;20885;-57
2023/03/13 00:53:16;;;;;;;17.15;2.85;;;10.50;99.90;;;;;;5040974;28;20094;-62
2023/03/13 00:56:02;;;;;;;20.50;3.53;;;10.40;99.90;;;;;;5024281;28;20030;-56
2023/03/13 00:58:30;;;;;;;17.55;3.05;;;10.40;99.90;;;;;;5032689;28;20127;-56
2023/03/13 01:00:56;;;;;;;19.67;3.88;;;10.50;99.90;;;;;;5033425;28;20029;-56
2023/03/13 01:03:26;;;;;;;21.38;4.40;;;10.40;99.90;;;;;;5041938;28;20056;-57
2023/03/13 01:06:00;;;;;;;20.98;3.75;;;10.50;99.90;;;;;;5037085;28;20129;-57
2023/03/13 01:08:26;;;;;;;18.58;3.75;;;10.50;99.90;;;;;;5045697;28;20057;-57
2023/03/13 01:10:58;;;;;;;23.35;4.47;;;10.50;99.90;;;;;;5031294;28;20044;-57
2023/03/13 01:13:23;;;;;;;25.02;4.32;;;10.40;99.90;;;;;;5043849;28;20029;-57
2023/03/13 01:15:49;;;;;;;18.83;3.95;;;10.40;99.90;;;;;;5035230;28;20037;-56
2023/03/13 01:18:14;;;;;;;19.23;3.63;;;10.50;99.90;;;;;;5040578;28;20096;-56
2023/03/13 01:20:40;;;;;;;17.80;3.72;;;10.40;99.90;;;;;;5036022;28;20138;-56
2023/03/13 01:23:06;;;;;;;22.90;4.28;;;10.40;99.90;;;;;;5035338;28;20030;-56
2023/03/13 01:25:35;;;;;;;17.42;3.58;;;10.40;99.90;;;;;;5023282;28;20055;-56
2023/03/13 01:28:01;;;;;;;17.92;3.72;;;10.30;99.90;;;;;;5022060;28;20065;-56
2023/03/13 01:30:27;;;;;;;18.40;4.35;;;10.30;99.90;;;;;;5027606;28;21680;-56
2023/03/13 01:32:53;;;;;;;16.90;4.15;;;10.30;99.90;;;;;;5024701;28;20045;-55
2023/03/13 01:35:18;;;;;;;25.00;4.72;;;10.20;99.90;;;;;;5024923;28;20029;-55
2023/03/13 01:37:44;;;;;;;17.70;3.80;;;10.20;99.90;;;;;;5026759;28;20026;-56
2023/03/13 01:40:10;;;;;;;23.77;4.18;;;10.20;99.90;;;;;;5031653;28;20607;-56
2023/03/13 01:42:56;;;;;;;20.23;4.45;;;10.20;99.90;;;;;;5031610;28;20398;-55
2023/03/13 01:45:50;;;;;;;25.30;4.15;;;10.10;99.90;;;;;;5030138;28;20046;-56
2023/03/13 01:48:16;;;;;;;23.80;3.83;;;10.10;99.90;;;;;;5027807;28;20041;-55
2023/03/13 01:50:41;;;;;;;20.70;3.83;;;10.10;99.90;;;;;;5027874;28;20139;-55
2023/03/13 01:53:07;;;;;;;23.60;4.28;;;10.10;99.90;;;;;;5034671;28;20034;-55
2023/03/13 01:55:33;;;;;;;20.75;3.75;;;10.00;99.90;;;;;;5029613;28;20292;-56
2023/03/13 01:57:59;;;;;;;23.70;4.03;;;10.00;99.90;;;;;;5035091;28;20033;-56
2023/03/13 02:00:34;;;;;;;20.90;3.95;;;10.00;99.90;;;;;;5031494;28;20060;-55
2023/03/13 02:03:06;;;;;;;22.40;4.15;;;10.10;99.90;;;;;;5027335;28;20544;-56
2023/03/13 02:05:32;;;;;;;23.63;4.45;;;10.00;99.90;;;;;;5019431;28;20073;-56
2023/03/13 02:08:00;;;;;;;22.38;3.75;;;10.00;99.90;;;;;;5024844;28;20057;-56
2023/03/13 02:10:28;;;;;;;20.50;3.47;;;10.00;99.90;;;;;;5021626;28;20469;-56
2023/03/13 02:12:54;;;;;;;19.35;3.78;;;10.00;99.90;;;;;;5027828;28;20026;-55
2023/03/13 02:15:23;;;;;;;24.60;3.80;;;10.10;99.90;;;;;;5029987;28;20029;-55
2023/03/13 02:17:49;;;;;;;23.02;3.80;;;10.10;99.90;;;;;;5018456;28;20428;-55
2023/03/13 02:20:20;;;;;;;16.02;4.07;;;10.10;99.90;;;;;;5023451;28;20018;-56
2023/03/13 02:23:10;;;;;;;20.15;4.35;;;10.10;99.90;;;;;;5025706;28;20567;-55
2023/03/13 02:25:47;;;;;;;17.33;3.17;;;10.10;99.90;;;;;;5035809;28;20047;-56
2023/03/13 02:28:16;;;;;;;18.92;3.80;;;10.10;99.90;;;;;;5034541;28;20034;-55
2023/03/13 02:30:43;;;;;;;20.23;3.42;;;10.10;99.90;;;;;;5046756;28;20022;-55
2023/03/13 02:33:11;;;;;;;17.58;3.35;;;10.10;99.90;;;;;;5036746;28;20033;-55
2023/03/13 02:35:37;;;;;;;19.75;3.67;;;10.10;99.90;;;;;;5028704;28;20408;-55
2023/03/13 02:38:06;;;;;;;18.25;3.78;;;10.20;99.90;;;;;;5043351;28;20033;-56
2023/03/13 02:40:39;;;;;;;19.02;3.90;;;10.20;99.90;;;;;;5045763;28;20128;-56
2023/03/13 02:43:35;;;;;;;14.57;3.60;;;10.20;99.90;;;;;;5043074;28;20086;-56
2023/03/13 02:46:02;;;;;;;17.52;3.33;;;10.20;99.90;;;;;;5028784;28;20112;-56
2023/03/13 02:48:36;;;;;;;17.88;3.78;;;10.30;99.90;;;;;;5044781;28;20052;-56
2023/03/13 02:51:05;;;;;;;13.57;3.10;;;10.30;99.90;;;;;;5026152;28;20152;-56
2023/03/13 02:53:33;;;;;;;17.65;3.15;;;10.40;99.90;;;;;;5031206;28;20638;-56
2023/03/13 02:55:58;;;;;;;14.85;3.58;;;10.30;99.90;;;;;;5031950;28;20037;-56
2023/03/13 02:58:24;;;;;;;11.77;2.60;;;10.40;99.90;;;;;;5033687;28;20156;-56
2023/03/13 03:00:51;;;;;;;17.05;3.17;;;10.50;99.90;;;;;;5036412;28;20515;-56
2023/03/13 03:03:17;;;;;;;11.25;2.80;;;10.40;99.90;;;;;;5035139;28;20037;-56
2023/03/13 03:05:42;;;;;;;13.10;2.50;;;10.50;99.90;;;;;;5033596;28;20026;-56
2023/03/13 03:08:08;;;;;;;13.07;2.67;;;10.50;99.90;;;;;;5034220;28;20091;-56
2023/03/13 03:10:35;;;;;;;6.07;2.40;;;10.50;99.90;;;;;;5041378;28;20030;-56
2023/03/13 03:13:01;;;;;;;9.90;2.58;;;10.50;99.90;;;;;;5032529;28;20119;-56
2023/03/13 03:15:27;;;;;;;7.38;2.63;;;10.60;99.90;;;;;;5027381;28;20029;-55
2023/03/13 03:17:53;;;;;;;12.18;2.95;;;10.60;99.90;;;;;;5025318;28;20041;-56
2023/03/13 03:20:18;;;;;;;10.98;2.33;;;10.60;99.90;;;;;;5027976;28;20026;-56
2023/03/13 03:22:44;;;;;;;7.05;2.47;;;10.60;99.90;;;;;;5021315;28;20059;-56
2023/03/13 03:25:09;;;;;;;6.88;2.28;;;10.60;99.90;;;;;;5023775;28;20037;-56
2023/03/13 03:27:35;;;;;;;9.00;2.40;;;10.70;99.90;;;;;;5021884;28;20132;-56
2023/03/13 03:30:03;;;;;;;6.47;2.40;;;10.70;99.90;;;;;;5027576;28;20033;-56
2023/03/13 03:32:28;;;;;;;6.28;2.20;;;10.80;99.90;;;;;;5040895;28;20041;-57
2023/03/13 03:34:54;;;;;;;5.82;2.55;;;10.80;99.90;;;;;;5036084;28;20473;-56
2023/03/13 03:37:20;;;;;;;15.15;3.08;;;10.90;99.90;;;;;;5033270;28;20129;-56
2023/03/13 03:39:45;;;;;;;5.05;2.40;;;10.90;99.90;;;;;;5039777;28;20063;-56
2023/03/13 03:42:11;;;;;;;5.93;2.20;;;10.90;99.90;;;;;;5033222;28;20107;-56
2023/03/13 03:44:36;;;;;;;4.35;2.25;;;11.00;99.90;;;;;;5036736;28;20060;-57
2023/03/13 03:47:02;;;;;;;5.43;2.75;;;10.90;99.90;;;;;;5038726;28;20486;-56
2023/03/13 03:49:27;;;;;;;7.22;2.97;;;11.00;99.90;;;;;;5034535;28;20036;-56
2023/03/13 03:51:53;;;;;;;5.75;3.00;;;11.00;99.90;;;;;;5037370;28;20056;-56
2023/03/13 03:54:18;;;;;;;6.45;3.25;;;11.00;99.90;;;;;;5031660;28;20090;-57
2023/03/13 03:56:44;;;;;;;6.60;3.40;;;11.10;99.90;;;;;;5035490;28;20037;-57
2023/03/13 03:59:09;;;;;;;6.00;2.83;;;11.10;99.90;;;;;;5033647;28;20040;-56
2023/03/13 04:01:35;;;;;;;6.38;3.30;;;11.10;99.90;;;;;;5035855;28;20150;-56
2023/03/13 04:04:01;;;;;;;4.85;2.72;;;11.10;99.90;;;;;;5035010;28;20080;-56
2023/03/13 04:06:27;;;;;;;6.13;3.03;;;11.20;99.90;;;;;;5024662;28;20041;-56
2023/03/13 04:08:53;;;;;;;5.68;2.80;;;11.20;99.90;;;;;;5025875;28;20041;-57
2023/03/13 04:11:19;;;;;;;7.32;3.10;;;11.20;99.90;;;;;;5025514;28;20033;-56
2023/03/13 04:13:44;;;;;;;4.30;2.83;;;11.20;99.90;;;;;;5026521;28;20043;-56
2023/03/13 04:16:10;;;;;;;4.97;3.00;;;11.20;99.90;;;;;;5025226;28;20112;-56
2023/03/13 04:18:35;;;;;;;6.22;2.67;;;11.30;99.90;;;;;;5027025;28;20084;-56
2023/03/13 04:21:03;;;;;;;5.93;2.83;;;11.30;99.90;;;;;;5024095;28;20033;-57
2023/03/13 04:23:28;;;;;;;4.90;2.72;;;11.30;99.90;;;;;;5028713;28;20053;-57
2023/03/13 04:25:54;;;;;;;5.68;2.97;;;11.40;99.90;;;;;;5024915;28;20271;-57
2023/03/13 04:28:19;;;;;;;4.97;3.08;;;11.40;99.90;;;;;;5027855;28;20029;-56
2023/03/13 04:30:45;;;;;;;5.47;2.67;;;11.40;99.90;;;;;;5023223;28;20062;-56
2023/03/13 04:33:10;;;;;;;4.97;2.80;;;11.40;99.90;;;;;;5024220;28;20300;-56
2023/03/13 04:35:36;;;;;;;3.50;2.33;;;11.50;99.90;;;;;;5023335;28;20036;-56
2023/03/13 04:38:01;;;;;;;5.22;3.17;;;11.40;99.90;;;;;;5019876;28;20033;-56
2023/03/13 04:40:27;;;;;;;4.30;2.80;;;11.50;99.90;;;;;;5034594;28;20097;-56
2023/03/13 04:42:53;;;;;;;4.47;3.00;;;11.50;99.90;;;;;;5035158;28;20033;-56
2023/03/13 04:45:19;;;;;;;6.25;3.08;;;11.50;99.90;;;;;;5038654;28;20121;-57
2023/03/13 04:47:46;;;;;;;4.93;2.97;;;11.60;99.90;;;;;;5021369;28;20141;-57
2023/03/13 04:50:11;;;;;;;5.70;3.05;;;11.60;99.90;;;;;;5036968;28;20127;-56
2023/03/13 04:52:37;;;;;;;4.93;2.60;;;11.60;99.90;;;;;;5037642;28;20033;-56
2023/03/13 04:55:03;;;;;;;5.15;3.22;;;11.70;99.90;;;;;;5037399;28;20048;-56
2023/03/13 04:57:29;;;;;;;6.13;3.17;;;11.70;99.90;;;;;;5033503;28;20033;-56
2023/03/13 04:59:54;;;;;;;4.35;3.22;;;11.70;99.90;;;;;;5043179;28;20025;-56
2023/03/13 05:02:20;;;;;;;6.95;3.30;;;11.60;99.90;;;;;;5039963;28;20034;-56
2023/03/13 05:04:45;;;;;;;6.20;3.33;;;11.70;99.90;;;;;;5029371;28;20500;-56
2023/03/13 05:07:11;;;;;;;6.28;3.50;;;11.90;99.90;;;;;;5041945;28;20047;-56
2023/03/13 05:09:37;;;;;;;5.50;4.10;;;12.10;99.90;;;;;;5034854;28;20542;-56
2023/03/13 05:12:02;;;;;;;5.35;4.07;;;11.80;99.90;;;;;;5029999;28;20106;-57
2023/03/13 05:14:28;;;;;;;6.00;4.00;;;11.80;99.90;;;;;;5032461;28;20062;-56
2023/03/13 05:16:53;;;;;;;5.72;3.97;;;11.80;99.90;;;;;;5015844;28;20126;-57
2023/03/13 05:19:19;;;;;;;6.10;4.00;;;11.80;99.90;;;;;;5035625;28;20063;-57
2023/03/13 05:21:44;;;;;;;4.90;3.70;;;11.90;99.90;;;;;;5043692;28;20041;-56
2023/03/13 05:24:10;;;;;;;5.97;4.10;;;11.80;99.90;;;;;;5033879;28;20047;-56
2023/03/13 05:26:35;;;;;;;8.45;4.25;;;11.90;99.90;;;;;;5036200;28;20051;-56
2023/03/13 05:29:01;;;;;;;6.80;3.70;;;11.80;99.90;;;;;;5040097;28;20372;-56
2023/03/13 05:31:27;;;;;;;3.95;3.47;;;11.80;99.90;;;;;;5039367;28;20037;-57
2023/03/13 05:33:52;;;;;;;5.35;3.83;;;11.90;99.90;;;;;;5028021;28;20034;-57
2023/03/13 05:36:18;;;;;;;5.28;4.00;;;11.80;99.90;;;;;;5028850;28;20029;-56
2023/03/13 05:38:43;;;;;;;4.50;3.55;;;11.90;99.90;;;;;;5028363;28;20063;-57
2023/03/13 05:41:09;;;;;;;5.75;3.90;;;11.90;99.90;;;;;;5023431;28;20060;-56
2023/03/13 05:43:35;;;;;;;6.20;3.97;;;12.00;99.90;;;;;;5027809;28;20033;-56
2023/03/13 05:46:00;;;;;;;6.60;3.45;;;12.00;99.90;;;;;;5030569;28;20112;-56
2023/03/13 05:48:26;;;;;;;5.90;3.90;;;12.00;99.90;;;;;;5045660;28;20099;-56
2023/03/13 05:50:51;;;;;;;4.78;3.92;;;12.00;99.90;;;;;;5034942;28;20046;-57
2023/03/13 05:53:17;;;;;;;4.40;3.30;;;12.00;99.90;;;;;;5026965;28;20028;-57
2023/03/13 05:55:42;;;;;;;5.20;3.30;;;12.00;99.90;;;;;;5022270;28;20452;-57
2023/03/13 05:58:08;;;;;;;6.28;4.00;;;12.10;99.90;;;;;;5026707;28;20175;-57
2023/03/13 06:00:34;;;;;;;5.60;3.92;;;12.20;99.90;;;;;;5021223;28;20037;-57
2023/03/13 06:02:59;;;;;;;6.28;3.80;;;12.10;99.90;;;;;;5035971;28;20033;-56
2023/03/13 06:05:25;;;;;;;6.88;3.17;;;12.10;99.90;;;;;;5031370;28;20067;-57
2023/03/13 06:07:51;;;;;;;5.50;3.63;;;12.10;99.90;;;;;;5029009;28;20214;-57
2023/03/13 06:10:16;;;;;;;5.78;3.85;;;12.00;99.90;;;;;;5023982;28;20026;-57
2023/03/13 06:12:42;;;;;;;8.80;4.10;;;12.10;99.90;;;;;;5030461;28;20045;-57
2023/03/13 06:15:08;;;;;;;9.98;3.63;;;12.10;99.90;;;;;;5026888;28;20495;-57
2023/03/13 06:17:35;;;;;;;6.40;3.90;;;12.10;99.90;;;;;;5024434;28;20176;-56
2023/03/13 06:20:01;;;;;;;5.70;3.78;;;12.20;99.90;;;;;;5029645;28;20106;-57
2023/03/13 06:22:27;;;;;;;5.40;3.97;;;12.20;99.90;;;;;;5031491;28;20504;-56
2023/03/13 06:24:52;;;;;;;8.65;3.53;;;12.20;99.90;;;;;;5028967;28;20072;-57
2023/03/13 06:27:18;;;;;;;5.78;3.05;;;12.30;99.90;;;;;;5031024;28;20481;-57
2023/03/13 06:29:44;;;;;;;9.02;3.28;;;12.30;99.90;;;;;;5025739;28;20049;-56
2023/03/13 06:32:09;;;;;;;7.03;3.53;;;12.30;99.90;;;;;;5022683;28;20339;-56
2023/03/13 06:34:36;;;;;;;4.40;2.88;;;12.30;99.90;;;;;;5030355;28;20135;-56
2023/03/13 06:37:02;;;;;;;5.82;2.90;;;12.30;99.90;;;;;;5023872;28;20056;-56
2023/03/13 06:39:28;;;;;;;6.13;2.83;;;12.30;99.90;;;;;;5020594;28;20045;-56
2023/03/13 06:41:54;;;;;;;4.03;2.78;;;12.40;99.90;;;;;;5040116;28;20033;-56
2023/03/13 06:44:19;;;;;;;5.68;2.50;;;12.40;99.90;;;;;;5032219;28;20056;-57
2023/03/13 06:46:45;;;;;;;5.32;2.75;;;12.40;99.90;;;;;;5038263;28;20037;-55
2023/03/13 06:49:10;;;;;;;3.97;2.47;;;12.40;99.90;;;;;;5037436;28;20025;-55
2023/03/13 06:51:36;;;;;;;6.20;2.70;;;12.50;99.90;;;;;;5044228;28;20108;-52
2023/03/13 06:54:02;;;;;;;6.82;2.83;;;12.50;99.90;;;;;;5037036;28;21266;-56
2023/03/13 06:56:28;;;;;;;9.27;3.08;;;12.50;99.90;;;;;;5037441;28;20451;-56
2023/03/13 06:58:54;;;;;;;5.78;2.83;;;12.50;99.90;;;;;;5039361;28;20045;-56
2023/03/13 07:01:19;;;;;;;6.22;2.67;;;12.60;99.90;;;;;;5036344;28;20041;-56
2023/03/13 07:03:47;;;;;;;4.22;2.53;;;12.60;99.90;;;;;;5045839;28;20036;-56
2023/03/13 07:06:13;;;;;;;3.45;2.42;;;12.60;99.90;;;;;;5025402;28;20042;-56
2023/03/13 07:08:39;;;;;;;6.20;2.83;;;12.60;99.90;;;;;;5038335;28;20045;-55
2023/03/13 07:11:07;;;;;;;9.73;2.90;;;12.60;99.90;;;;;;5028380;28;20029;-56
2023/03/13 07:13:33;;;;;;;7.00;2.60;;;12.70;99.90;;;;;;5040332;28;20029;-56
2023/03/13 07:16:00;;;;;;;3.80;2.42;;;12.70;99.90;;;;;;5033726;28;20033;-56
2023/03/13 07:18:25;;;;;;;5.18;2.33;;;12.70;99.90;;;;;;5037702;28;20119;-56
2023/03/13 07:20:53;;;;;;;4.93;2.63;;;12.70;99.90;;;;;;5040216;28;20205;-56
2023/03/13 07:23:19;;;;;;;5.80;2.40;;;12.80;99.90;;;;;;5033054;28;20049;-56
2023/03/13 07:25:55;;;;;;;5.97;2.20;;;12.90;99.90;;;;;;5019740;28;20038;-56
2023/03/13 07:28:22;;;;;;;5.63;2.42;;;12.90;99.90;;;;;;5049650;28;20120;-55
2023/03/13 07:30:48;;;;;;;5.50;2.50;;;12.90;99.90;;;;;;5037324;28;20385;-56
2023/03/13 07:33:13;;;;;;;5.97;2.28;;;12.90;99.90;;;;;;5041295;28;20033;-56
2023/03/13 07:35:39;;;;;;;6.32;2.28;;;12.90;99.90;;;;;;5038773;28;20033;-56
2023/03/13 07:38:04;;;;;;;8.43;3.13;;;12.90;99.90;;;;;;5031534;28;20026;-55
2023/03/13 07:40:30;;;;;;;7.55;2.60;;;12.90;99.90;;;;;;5035260;28;20105;-56
2023/03/13 07:42:56;;;;;;;6.25;2.70;;;12.90;99.90;;;;;;5036699;28;20060;-56
2023/03/13 07:45:21;;;;;;;6.95;2.50;;;12.90;99.90;;;;;;5044875;28;20052;-56
2023/03/13 07:47:47;;;;;;;6.95;2.80;;;12.90;99.90;;;;;;5045410;28;20041;-56
2023/03/13 07:50:12;;;;;;;8.07;2.72;;;13.00;99.90;;;;;;5035825;28;20041;-56
2023/03/13 07:52:38;;;;;;;6.60;2.60;;;13.00;99.90;;;;;;5040245;28;20048;-56
2023/03/13 07:55:03;;;;;;;10.70;3.13;;;12.90;99.90;;;;;;5022770;28;20057;-56
2023/03/13 07:57:29;;;;;;;6.72;2.75;;;12.90;99.90;;;;;;5024333;28;20046;-56
2023/03/13 07:59:55;;;;;;;8.50;2.83;;;13.00;99.90;;;;;;5033079;28;20112;-56
2023/03/13 08:02:21;;;;;;;10.90;3.25;;;13.00;99.90;;;;;;5037068;28;20521;-56
2023/03/13 08:04:46;;;;;;;10.38;3.05;;;13.00;99.90;;;;;;5039119;28;20464;-56
2023/03/13 08:07:12;;;;;;;9.27;3.08;;;12.90;99.90;;;;;;5041991;28;20044;-56
2023/03/13 08:09:37;;;;;;;10.77;3.05;;;13.10;99.90;;;;;;5044378;28;20659;-56
2023/03/13 08:12:03;;;;;;;8.50;2.90;;;13.10;99.90;;;;;;5035503;28;20039;-56
2023/03/13 08:14:29;;;;;;;11.35;2.90;;;13.10;99.90;;;;;;5035264;28;20060;-55
2023/03/13 08:16:54;;;;;;;8.15;2.75;;;13.10;99.90;;;;;;5019657;28;20437;-56
2023/03/13 08:19:20;;;;;;;7.32;2.92;;;13.10;99.90;;;;;;5034995;28;20032;-56
2023/03/13 08:21:46;;;;;;;14.82;3.05;;;13.20;99.90;;;;;;5045286;28;20041;-56
2023/03/13 08:24:11;;;;;;;9.65;3.08;;;13.10;99.90;;;;;;5035796;28;20128;-55
2023/03/13 08:26:39;;;;;;;10.68;3.03;;;13.20;99.90;;;;;;5038513;28;20065;-56
2023/03/13 08:29:08;;;;;;;10.30;3.03;;;13.20;99.90;;;;;;5030047;28;20611;-56
2023/03/13 08:31:43;;;;;;;13.95;3.22;;;13.20;99.90;;;;;;5035990;28;20041;-56
2023/03/13 08:34:10;;;;;;;9.35;3.30;;;13.30;99.90;;;;;;5043391;28;20110;-56
2023/03/13 08:36:37;;;;;;;7.25;2.95;;;13.30;99.90;;;;;;5038853;28;20061;-56
2023/03/13 08:39:19;;;;;;;9.27;3.15;;;13.30;99.90;;;;;;5044112;28;20487;-55
2023/03/13 08:41:45;;;;;;;9.10;3.15;;;13.30;99.90;;;;;;5031359;28;20184;-56
2023/03/13 08:44:13;;;;;;;9.23;3.22;;;13.30;99.90;;;;;;5043057;28;20040;-55
2023/03/13 08:46:39;;;;;;;8.95;2.92;;;13.30;99.90;;;;;;5031142;28;20049;-56
2023/03/13 08:49:06;;;;;;;10.52;3.00;;;13.30;99.90;;;;;;5033072;28;20374;-56
2023/03/13 08:51:33;;;;;;;9.88;2.90;;;13.40;99.90;;;;;;5042542;28;20048;-56
2023/03/13 08:53:59;;;;;;;7.53;2.78;;;13.40;99.90;;;;;;5025861;28;20041;-56
2023/03/13 08:56:29;;;;;;;9.82;3.10;;;13.40;99.90;;;;;;5026979;28;20039;-55
2023/03/13 08:58:56;;;;;;;9.18;3.00;;;13.40;99.90;;;;;;5036826;28;20395;-56
2023/03/13 09:01:25;;;;;;;6.78;2.72;;;13.50;99.90;;;;;;5039762;28;20040;-56
2023/03/13 09:03:51;;;;;;;9.30;3.65;;;13.60;99.90;;;;;;5041628;28;20054;-56
2023/03/13 09:06:17;;;;;;;7.28;2.63;;;13.70;99.90;;;;;;5025027;28;20460;-56
2023/03/13 09:08:43;;;;;;;7.88;2.70;;;13.70;99.90;;;;;;5030175;28;20044;-56
2023/03/13 09:11:12;;;;;;;8.77;2.95;;;13.70;99.90;;;;;;5030183;28;20041;-56
2023/03/13 09:13:40;;;;;;;7.60;2.80;;;13.80;99.90;;;;;;5042822;28;20036;-56
2023/03/13 09:16:09;;;;;;;9.35;2.90;;;13.90;99.90;;;;;;5042564;28;20083;-55
2023/03/13 09:18:35;;;;;;;8.98;2.78;;;13.90;99.90;;;;;;5038840;28;20134;-55
2023/03/13 09:21:01;;;;;;;11.90;3.13;;;13.90;99.90;;;;;;5031853;28;20628;-56
2023/03/13 09:23:27;;;;;;;10.52;3.05;;;14.00;99.90;;;;;;5039230;28;20140;-55
2023/03/13 09:25:55;;;;;;;7.72;3.13;;;13.90;99.90;;;;;;5037355;28;20119;-55
2023/03/13 09:28:22;;;;;;;8.02;2.88;;;14.00;99.90;;;;;;5031693;28;20030;-55
2023/03/13 09:30:48;;;;;;;10.23;3.15;;;14.00;99.90;;;;;;5017650;28;20053;-55
2023/03/13 09:33:18;;;;;;;8.30;3.20;;;14.00;99.90;;;;;;5021367;28;20033;-55
2023/03/13 09:35:49;;;;;;;7.22;3.08;;;14.10;99.90;;;;;;5036154;28;20045;-56
2023/03/13 09:38:19;;;;;;;5.13;2.75;;;14.10;99.90;;;;;;5039395;28;20116;-56
2023/03/13 09:40:48;;;;;;;8.13;2.90;;;14.20;99.90;;;;;;5024913;28;20088;-55
2023/03/13 09:43:44;;;;;;;6.55;2.60;;;14.20;99.90;;;;;;5031702;28;20068;-56
2023/03/13 09:46:20;;;;;;;7.65;2.90;;;14.30;99.90;;;;;;5019754;28;20073;-56
2023/03/13 09:48:49;;;;;;;9.88;3.20;;;14.30;99.90;;;;;;5029013;28;20099;-55
2023/03/13 09:51:23;;;;;;;9.10;2.88;;;14.30;99.90;;;;;;5024632;28;20053;-56
2023/03/13 09:54:20;;;;;;;7.82;2.88;;;14.40;99.90;;;;;;5028505;28;20067;-55
2023/03/13 09:57:14;;;;;;;10.45;3.55;;;14.40;99.90;;;;;;5025763;28;20490;-55
2023/03/13 09:59:42;;;;;;;;;;;14.50;99.90;;;;;;5029753;28;20037;-55
2023/03/13 10:02:23;;;;;;;8.10;2.90;;;14.70;99.90;;;;;;5042472;28;20016;-56
2023/03/13 10:04:54;;;;;;;4.88;2.55;;;14.80;99.90;;;;;;5043317;28;20037;-55
2023/03/13 10:07:20;;;;;;;6.22;2.30;;;14.90;99.90;;;;;;5040990;28;20041;-55
2023/03/13 10:09:46;;;;;;;5.93;2.50;;;15.00;99.90;;;;;;5030496;28;20037;-55
2023/03/13 10:12:20;;;;;;;5.53;2.50;;;15.10;99.90;;;;;;5034977;28;20779;-55
2023/03/13 10:15:18;;;;;;;5.35;2.42;;;15.10;99.90;;;;;;5039323;28;20056;-55
2023/03/13 10:17:43;;;;;;;5.03;2.40;;;15.00;99.90;;;;;;5017514;28;20416;-56
2023/03/13 10:20:34;;;;;;;6.38;2.53;;;15.00;99.90;;;;;;5034669;28;20041;-56
2023/03/13 10:23:10;;;;;;;7.10;2.10;;;14.90;99.90;;;;;;5030011;28;20038;-55
2023/03/13 10:25:38;;;;;;;5.60;2.40;;;14.90;99.90;;;;;;5032079;28;20500;-55
2023/03/13 10:28:09;;;;;;;5.95;2.47;;;15.00;99.90;;;;;;5037901;28;20129;-55
2023/03/13 10:30:38;;;;;;;5.35;2.17;;;15.10;99.90;;;;;;5034965;28;20072;-55
2023/03/13 10:33:06;;;;;;;5.63;2.10;;;15.10;99.90;;;;;;5033430;28;20659;-55
2023/03/13 10:38:19;;;;;;;6.90;3.30;;;15.30;99.90;;;;;;5709774;23;20054;-54
2023/03/13 10:41:08;;;;;;;7.78;2.22;;;15.40;99.90;;;;;;4970435;28;20422;-55
2023/03/13 10:43:33;;;;;;;3.08;1.75;;;15.40;99.90;;;;;;4978490;28;20035;-55
2023/03/13 10:46:00;;;;;;;4.50;2.03;;;15.50;99.90;;;;;;4980378;28;20042;-56
2023/03/13 10:48:29;;;;;;;5.80;2.13;;;15.40;99.90;;;;;;4986846;28;20027;-55
2023/03/13 10:50:56;;;;;;;3.67;1.70;;;15.40;99.90;;;;;;4977075;28;20411;-55
2023/03/13 10:53:35;;;;;;;4.35;1.70;;;15.40;99.90;;;;;;4984303;28;20049;-55
2023/03/13 10:56:27;;;;;;;4.55;1.88;;;15.50;99.90;;;;;;4958326;28;20522;-56
2023/03/13 10:58:53;;;;;;;4.45;1.90;;;15.40;99.90;;;;;;4983251;28;20041;-55
2023/03/13 11:01:38;;;;;;;5.63;1.95;;;15.50;99.90;;;;;;4988160;28;20038;-55
2023/03/13 11:04:29;;;;;;;4.25;1.80;;;15.50;99.90;;;;;;4979427;28;20493;-55
2023/03/13 11:07:01;;;;;;;3.65;1.50;;;15.60;99.90;;;;;;4963209;28;20088;-55
2023/03/13 11:09:27;;;;;;;2.47;1.50;;;15.60;99.90;;;;;;4976983;28;20498;-55
2023/03/13 11:12:04;;;;;;;4.88;1.70;;;15.80;99.90;;;;;;4974449;28;20286;-55
2023/03/13 11:14:29;;;;;;;4.32;1.40;;;15.80;99.90;;;;;;4984209;28;20041;-56
2023/03/13 11:17:03;;;;;;;4.35;1.67;;;15.70;99.90;;;;;;4978186;28;20034;-56
2023/03/13 11:19:51;;;;;;;4.22;1.40;;;15.60;99.90;;;;;;4954550;28;20077;-56
2023/03/13 11:22:16;;;;;;;3.92;1.40;;;15.60;99.90;;;;;;4977556;28;20109;-55
2023/03/13 11:24:51;;;;;;;2.33;1.50;;;15.90;99.90;;;;;;4982877;28;20149;-56
2023/03/13 11:27:34;;;;;;;2.92;1.30;;;15.80;99.90;;;;;;4977674;28;20058;-55
2023/03/13 11:30:21;;;;;;;6.57;1.60;;;15.80;99.90;;;;;;4979077;28;20058;-56
2023/03/13 11:32:59;;;;;;;3.92;1.20;;;15.90;99.90;;;;;;4984751;28;20038;-55
2023/03/13 11:35:46;;;;;;;1.38;1.00;;;15.90;99.90;;;;;;4986955;28;20515;-56
2023/03/13 11:38:32;;;;;;;3.20;0.95;;;15.90;99.90;;;;;;4975706;28;20039;-56
2023/03/13 11:41:14;;;;;;;3.45;1.02;;;15.90;99.90;;;;;;4965806;28;20101;-56
2023/03/13 11:44:08;;;;;;;1.48;0.85;;;15.70;99.90;;;;;;4962987;28;20039;-55
2023/03/13 11:46:54;;;;;;;3.35;1.00;;;15.80;99.90;;;;;;4963872;28;20073;-55
2023/03/13 11:49:20;;;;;;;2.83;1.00;;;15.90;99.90;;;;;;4953825;28;20083;-56
2023/03/13 11:52:11;;;;;;;4.10;1.00;;;15.80;99.90;;;;;;4963219;28;20062;-55
2023/03/13 11:54:40;;;;;;;1.63;0.82;;;15.90;99.90;;;;;;4966536;28;20034;-55
2023/03/13 11:57:19;;;;;;;2.60;0.98;;;15.90;99.90;;;;;;4966998;28;20027;-56
2023/03/13 11:59:53;;;;;;;1.95;0.88;;;15.90;99.90;;;;;;4955571;28;20042;-56
2023/03/13 12:02:39;;;;;;;1.67;0.80;;;15.90;99.90;;;;;;4961309;28;20125;-55
2023/03/13 12:05:14;;;;;;;1.52;0.82;;;15.90;99.90;;;;;;4955401;28;20117;-56
2023/03/13 12:07:46;;;;;;;3.25;0.98;;;16.10;99.90;;;;;;4964115;28;20050;-56
2023/03/13 12:10:15;;;;;;;2.33;0.80;;;16.10;99.90;;;;;;4962928;28;20042;-56
2023/03/13 12:12:43;;;;;;;3.10;1.08;;;16.10;99.90;;;;;;4958976;28;20047;-56
2023/03/13 12:15:16;;;;;;;1.90;0.85;;;16.10;99.90;;;;;;4957195;28;20031;-56
2023/03/13 12:17:51;;;;;;;3.38;1.00;;;15.90;99.90;;;;;;4961412;28;20030;-56
2023/03/13 12:20:24;;;;;;;2.88;0.90;;;15.90;99.90;;;;;;4966518;28;20038;-56
2023/03/13 12:23:05;;;;;;;3.22;0.90;;;15.90;99.90;;;;;;4959677;28;20062;-56
2023/03/13 12:25:51;;;;;;;2.28;0.90;;;16.00;99.90;;;;;;4965035;28;20054;-56
2023/03/13 12:28:28;;;;;;;2.33;0.75;;;16.10;99.90;;;;;;4962027;28;20079;-56
2023/03/13 12:31:04;;;;;;;1.55;0.80;;;16.10;99.90;;;;;;4965429;28;20121;-56
2023/03/13 12:34:07;;;;;;;1.98;1.00;;;16.00;99.90;;;;;;4962978;28;20039;-56
2023/03/13 12:36:37;;;;;;;1.57;0.80;;;15.90;99.90;;;;;;4959216;28;20614;-57
2023/03/13 12:39:29;;;;;;;4.03;0.80;;;16.00;99.90;;;;;;4955506;28;20711;-56
2023/03/13 12:42:07;;;;;;;3.40;0.70;;;15.90;99.90;;;;;;4945109;28;20049;-56
2023/03/13 12:44:33;;;;;;;3.85;1.10;;;15.90;99.90;;;;;;4963599;28;20027;-56
2023/03/13 12:47:29;;;;;;;2.40;0.85;;;15.90;99.90;;;;;;4963596;28;20035;-57
2023/03/13 12:50:25;;;;;;;2.67;0.80;;;15.80;99.90;;;;;;4965395;28;20039;-56
2023/03/13 12:53:08;;;;;;;3.20;0.95;;;15.80;99.90;;;;;;4954198;28;20042;-56
2023/03/13 12:55:57;;;;;;;1.20;0.80;;;15.90;99.90;;;;;;4963391;28;20101;-55
2023/03/13 12:58:30;;;;;;;3.25;1.30;;;16.00;99.90;;;;;;4969211;28;20038;-56